sensor_id;sensor_type;location;lat;lon;timestamp;P1;durP1;ratioP1;P2;durP2;ratioP2
40537;SDS011;27925;41.874;12.526;2023-12-20T00:01:47;42.58;;;27.23;;
40537;SDS011;27925;41.874;12.526;2023-12-20T00:04:13;43.50;;;27.95;;
40537;SDS011;27925;41.874;12.526;2023-12-20T00:06:38;45.88;;;28.08;;
40537;SDS011;27925;41.874;12.526;2023-12-20T00:09:04;45.30;;;28.23;;
40537;SDS011;27925;41.874;12.526;2023-12-20T00:11:30;44.45;;;28.25;;
40537;SDS011;27925;41.874;12.526;2023-12-20T00:13:55;43.45;;;27.27;;
40537;SDS011;27925;41.874;12.526;2023-12-20T00:16:21;43.58;;;28.58;;
40537;SDS011;27925;41.874;12.526;2023-12-20T00:18:47;45.15;;;28.83;;
40537;SDS011;27925;41.874;12.526;2023-12-20T00:21:12;41.78;;;28.55;;
40537;SDS011;27925;41.874;12.526;2023-12-20T00:23:38;48.92;;;30.55;;
40537;SDS011;27925;41.874;12.526;2023-12-20T00:26:04;41.75;;;28.52;;
40537;SDS011;27925;41.874;12.526;2023-12-20T00:28:29;44.47;;;29.45;;
40537;SDS011;27925;41.874;12.526;2023-12-20T00:30:55;40.65;;;27.83;;
40537;SDS011;27925;41.874;12.526;2023-12-20T00:33:21;50.60;;;28.70;;
40537;SDS011;27925;41.874;12.526;2023-12-20T00:35:46;43.05;;;28.33;;
40537;SDS011;27925;41.874;12.526;2023-12-20T00:38:12;45.45;;;28.88;;
40537;SDS011;27925;41.874;12.526;2023-12-20T00:40:38;44.97;;;29.55;;
40537;SDS011;27925;41.874;12.526;2023-12-20T00:43:03;44.65;;;29.25;;
40537;SDS011;27925;41.874;12.526;2023-12-20T00:45:29;45.03;;;29.52;;
40537;SDS011;27925;41.874;12.526;2023-12-20T00:47:55;43.58;;;28.77;;
40537;SDS011;27925;41.874;12.526;2023-12-20T00:50:20;45.25;;;30.23;;
40537;SDS011;27925;41.874;12.526;2023-12-20T00:52:47;43.28;;;30.63;;
40537;SDS011;27925;41.874;12.526;2023-12-20T00:55:13;51.97;;;30.80;;
40537;SDS011;27925;41.874;12.526;2023-12-20T00:57:39;46.95;;;29.25;;
40537;SDS011;27925;41.874;12.526;2023-12-20T01:00:05;44.33;;;29.92;;
40537;SDS011;27925;41.874;12.526;2023-12-20T01:02:31;44.72;;;28.30;;
40537;SDS011;27925;41.874;12.526;2023-12-20T01:04:57;48.55;;;30.42;;
40537;SDS011;27925;41.874;12.526;2023-12-20T01:07:22;41.30;;;28.23;;
40537;SDS011;27925;41.874;12.526;2023-12-20T01:09:48;44.97;;;29.15;;
40537;SDS011;27925;41.874;12.526;2023-12-20T01:12:14;47.83;;;27.67;;
40537;SDS011;27925;41.874;12.526;2023-12-20T01:14:39;37.13;;;26.52;;
40537;SDS011;27925;41.874;12.526;2023-12-20T01:17:05;42.40;;;26.33;;
40537;SDS011;27925;41.874;12.526;2023-12-20T01:19:31;39.83;;;25.90;;
40537;SDS011;27925;41.874;12.526;2023-12-20T01:21:57;37.63;;;25.10;;
40537;SDS011;27925;41.874;12.526;2023-12-20T01:24:22;40.25;;;25.13;;
40537;SDS011;27925;41.874;12.526;2023-12-20T01:26:48;43.65;;;25.20;;
40537;SDS011;27925;41.874;12.526;2023-12-20T01:29:14;34.38;;;24.42;;
40537;SDS011;27925;41.874;12.526;2023-12-20T01:31:40;36.28;;;24.70;;
40537;SDS011;27925;41.874;12.526;2023-12-20T01:34:06;35.83;;;23.70;;
40537;SDS011;27925;41.874;12.526;2023-12-20T01:36:32;35.30;;;25.17;;
40537;SDS011;27925;41.874;12.526;2023-12-20T01:38:58;35.83;;;24.40;;
40537;SDS011;27925;41.874;12.526;2023-12-20T01:41:23;36.20;;;23.95;;
40537;SDS011;27925;41.874;12.526;2023-12-20T01:43:49;31.10;;;22.15;;
40537;SDS011;27925;41.874;12.526;2023-12-20T01:46:15;33.95;;;24.50;;
40537;SDS011;27925;41.874;12.526;2023-12-20T01:48:41;32.88;;;24.02;;
40537;SDS011;27925;41.874;12.526;2023-12-20T01:51:07;35.42;;;23.42;;
40537;SDS011;27925;41.874;12.526;2023-12-20T01:53:34;44.03;;;23.58;;
40537;SDS011;27925;41.874;12.526;2023-12-20T01:56:00;36.30;;;23.40;;
40537;SDS011;27925;41.874;12.526;2023-12-20T01:58:26;32.75;;;22.55;;
40537;SDS011;27925;41.874;12.526;2023-12-20T02:00:52;33.13;;;23.45;;
40537;SDS011;27925;41.874;12.526;2023-12-20T02:03:19;33.42;;;22.98;;
40537;SDS011;27925;41.874;12.526;2023-12-20T02:05:46;30.75;;;22.35;;
40537;SDS011;27925;41.874;12.526;2023-12-20T02:08:13;33.40;;;23.65;;
40537;SDS011;27925;41.874;12.526;2023-12-20T02:10:38;33.97;;;23.27;;
40537;SDS011;27925;41.874;12.526;2023-12-20T02:13:05;34.95;;;23.25;;
40537;SDS011;27925;41.874;12.526;2023-12-20T02:15:31;35.00;;;22.60;;
40537;SDS011;27925;41.874;12.526;2023-12-20T02:17:57;34.63;;;24.20;;
40537;SDS011;27925;41.874;12.526;2023-12-20T02:20:23;33.85;;;23.20;;
40537;SDS011;27925;41.874;12.526;2023-12-20T02:22:48;38.55;;;23.48;;
40537;SDS011;27925;41.874;12.526;2023-12-20T02:25:14;37.92;;;22.98;;
40537;SDS011;27925;41.874;12.526;2023-12-20T02:27:40;32.13;;;22.60;;
40537;SDS011;27925;41.874;12.526;2023-12-20T02:30:06;33.80;;;24.30;;
40537;SDS011;27925;41.874;12.526;2023-12-20T02:32:33;33.63;;;23.38;;
40537;SDS011;27925;41.874;12.526;2023-12-20T02:34:58;30.65;;;23.52;;
40537;SDS011;27925;41.874;12.526;2023-12-20T02:37:24;33.15;;;24.02;;
40537;SDS011;27925;41.874;12.526;2023-12-20T02:39:50;35.70;;;24.02;;
40537;SDS011;27925;41.874;12.526;2023-12-20T02:42:16;37.47;;;23.95;;
40537;SDS011;27925;41.874;12.526;2023-12-20T02:44:41;32.30;;;22.95;;
40537;SDS011;27925;41.874;12.526;2023-12-20T02:47:07;31.95;;;23.45;;
40537;SDS011;27925;41.874;12.526;2023-12-20T02:49:33;31.27;;;24.05;;
40537;SDS011;27925;41.874;12.526;2023-12-20T02:51:58;33.13;;;23.52;;
40537;SDS011;27925;41.874;12.526;2023-12-20T02:54:24;34.20;;;23.65;;
40537;SDS011;27925;41.874;12.526;2023-12-20T02:56:50;34.20;;;23.83;;
40537;SDS011;27925;41.874;12.526;2023-12-20T02:59:15;28.83;;;22.83;;
40537;SDS011;27925;41.874;12.526;2023-12-20T03:01:42;32.30;;;23.30;;
40537;SDS011;27925;41.874;12.526;2023-12-20T03:04:09;33.10;;;22.65;;
40537;SDS011;27925;41.874;12.526;2023-12-20T03:06:35;33.22;;;22.98;;
40537;SDS011;27925;41.874;12.526;2023-12-20T03:09:00;32.22;;;22.80;;
40537;SDS011;27925;41.874;12.526;2023-12-20T03:11:26;34.08;;;23.63;;
40537;SDS011;27925;41.874;12.526;2023-12-20T03:13:53;32.80;;;22.30;;
40537;SDS011;27925;41.874;12.526;2023-12-20T03:16:19;30.77;;;22.27;;
40537;SDS011;27925;41.874;12.526;2023-12-20T03:18:44;30.75;;;22.42;;
40537;SDS011;27925;41.874;12.526;2023-12-20T03:21:10;33.35;;;22.88;;
40537;SDS011;27925;41.874;12.526;2023-12-20T03:23:36;32.70;;;22.98;;
40537;SDS011;27925;41.874;12.526;2023-12-20T03:26:03;34.15;;;23.42;;
40537;SDS011;27925;41.874;12.526;2023-12-20T03:28:31;30.88;;;23.27;;
40537;SDS011;27925;41.874;12.526;2023-12-20T03:30:57;37.05;;;23.02;;
40537;SDS011;27925;41.874;12.526;2023-12-20T03:33:23;33.28;;;23.40;;
40537;SDS011;27925;41.874;12.526;2023-12-20T03:35:48;35.17;;;24.05;;
40537;SDS011;27925;41.874;12.526;2023-12-20T03:38:14;34.10;;;23.05;;
40537;SDS011;27925;41.874;12.526;2023-12-20T03:40:40;35.33;;;22.98;;
40537;SDS011;27925;41.874;12.526;2023-12-20T03:43:05;30.58;;;22.98;;
40537;SDS011;27925;41.874;12.526;2023-12-20T03:45:31;31.70;;;22.75;;
40537;SDS011;27925;41.874;12.526;2023-12-20T03:47:57;31.27;;;23.02;;
40537;SDS011;27925;41.874;12.526;2023-12-20T03:50:22;35.72;;;24.13;;
40537;SDS011;27925;41.874;12.526;2023-12-20T03:52:48;34.40;;;23.00;;
40537;SDS011;27925;41.874;12.526;2023-12-20T03:55:14;35.42;;;23.30;;
40537;SDS011;27925;41.874;12.526;2023-12-20T03:57:40;32.70;;;21.85;;
40537;SDS011;27925;41.874;12.526;2023-12-20T04:00:09;34.72;;;22.98;;
40537;SDS011;27925;41.874;12.526;2023-12-20T04:02:39;32.05;;;22.23;;
40537;SDS011;27925;41.874;12.526;2023-12-20T04:05:06;30.48;;;22.27;;
40537;SDS011;27925;41.874;12.526;2023-12-20T04:07:33;31.02;;;22.77;;
40537;SDS011;27925;41.874;12.526;2023-12-20T04:09:59;34.92;;;22.55;;
40537;SDS011;27925;41.874;12.526;2023-12-20T22:13:18;47.15;;;34.75;;
40537;SDS011;27925;41.874;12.526;2023-12-20T22:15:44;46.97;;;33.03;;
40537;SDS011;27925;41.874;12.526;2023-12-20T22:18:09;41.40;;;34.22;;
40537;SDS011;27925;41.874;12.526;2023-12-20T22:20:35;47.97;;;35.05;;
40537;SDS011;27925;41.874;12.526;2023-12-20T22:23:04;53.22;;;37.83;;
40537;SDS011;27925;41.874;12.526;2023-12-20T22:25:30;44.03;;;33.88;;
40537;SDS011;27925;41.874;12.526;2023-12-20T22:27:56;47.08;;;35.15;;
40537;SDS011;27925;41.874;12.526;2023-12-20T22:30:22;46.30;;;34.40;;
40537;SDS011;27925;41.874;12.526;2023-12-20T22:32:47;49.38;;;34.78;;
40537;SDS011;27925;41.874;12.526;2023-12-20T22:35:13;44.33;;;33.83;;
40537;SDS011;27925;41.874;12.526;2023-12-20T22:37:39;44.33;;;32.85;;
40537;SDS011;27925;41.874;12.526;2023-12-20T22:40:07;46.45;;;34.72;;
40537;SDS011;27925;41.874;12.526;2023-12-20T22:42:34;43.50;;;33.97;;
40537;SDS011;27925;41.874;12.526;2023-12-20T22:45:00;45.13;;;33.03;;
40537;SDS011;27925;41.874;12.526;2023-12-20T22:47:26;40.83;;;32.33;;
40537;SDS011;27925;41.874;12.526;2023-12-20T22:49:51;42.13;;;33.40;;
40537;SDS011;27925;41.874;12.526;2023-12-20T22:52:20;46.72;;;34.53;;
40537;SDS011;27925;41.874;12.526;2023-12-20T22:54:46;45.90;;;33.45;;
40537;SDS011;27925;41.874;12.526;2023-12-20T22:57:12;46.08;;;32.20;;
40537;SDS011;27925;41.874;12.526;2023-12-20T22:59:37;42.60;;;33.33;;
40537;SDS011;27925;41.874;12.526;2023-12-20T23:02:03;43.15;;;32.30;;
40537;SDS011;27925;41.874;12.526;2023-12-20T23:04:29;43.70;;;33.63;;
40537;SDS011;27925;41.874;12.526;2023-12-20T23:06:54;48.42;;;34.00;;
40537;SDS011;27925;41.874;12.526;2023-12-20T23:09:20;45.05;;;32.05;;
40537;SDS011;27925;41.874;12.526;2023-12-20T23:11:46;38.63;;;30.70;;
40537;SDS011;27925;41.874;12.526;2023-12-20T23:14:12;44.45;;;31.17;;
40537;SDS011;27925;41.874;12.526;2023-12-20T23:16:37;40.55;;;30.50;;
40537;SDS011;27925;41.874;12.526;2023-12-20T23:19:03;39.42;;;31.65;;
40537;SDS011;27925;41.874;12.526;2023-12-20T23:21:29;42.92;;;32.00;;
40537;SDS011;27925;41.874;12.526;2023-12-20T23:23:55;39.75;;;29.98;;
40537;SDS011;27925;41.874;12.526;2023-12-20T23:26:20;38.55;;;30.15;;
40537;SDS011;27925;41.874;12.526;2023-12-20T23:28:46;39.10;;;30.25;;
40537;SDS011;27925;41.874;12.526;2023-12-20T23:31:20;39.20;;;30.70;;
40537;SDS011;27925;41.874;12.526;2023-12-20T23:33:47;40.53;;;31.65;;
40537;SDS011;27925;41.874;12.526;2023-12-20T23:36:13;36.33;;;29.30;;
40537;SDS011;27925;41.874;12.526;2023-12-20T23:38:39;37.60;;;30.67;;
40537;SDS011;27925;41.874;12.526;2023-12-20T23:41:04;40.30;;;29.85;;
40537;SDS011;27925;41.874;12.526;2023-12-20T23:43:30;44.40;;;30.35;;
40537;SDS011;27925;41.874;12.526;2023-12-20T23:45:56;42.97;;;31.05;;
40537;SDS011;27925;41.874;12.526;2023-12-20T23:48:22;37.20;;;29.52;;
40537;SDS011;27925;41.874;12.526;2023-12-20T23:50:48;39.95;;;30.35;;
40537;SDS011;27925;41.874;12.526;2023-12-20T23:53:15;38.38;;;31.08;;
40537;SDS011;27925;41.874;12.526;2023-12-20T23:55:41;42.30;;;31.55;;
40537;SDS011;27925;41.874;12.526;2023-12-20T23:58:07;36.33;;;31.30;;
